Dueber, Ohio
Current Conditions -  °F | °C
As of 4:51 AM on Tuesday 21 Oct 2014 (Local Time) from KCAK Reporting Station
Haze Haze  
Wind Chill: 52°   Ceiling: 500
Heat Index: 52°   Visibility: 2mi
Dew Point: 49°   Wind: 7mph
Humidity: 89%   Direction: 250°WSW
Pressure: 29.84"   Gusts: NA
Location:  40.7516°N, 81.4187°W
Report Text: KCAK 210851Z 25006KT 2SM BR OVC005 11/09 A2984 RMK AO2 SLP105 60000 T01110094 55001 $
Loading
Personal Weather Stations






























Interactive Weather Map
Tropical Storm Tracking
New forecast layout! Learn more

10-Day Weather Forecast

Advertisements
Track Severe Weather on mobile